sensor_id;sensor_type;location;lat;lon;timestamp;temperature;humidity
22558;DHT22;11445;53.816;8.902;2023-04-01T00:02:12;10.20;99.90
22558;DHT22;11445;53.816;8.902;2023-04-01T00:04:39;10.20;99.90
22558;DHT22;11445;53.816;8.902;2023-04-01T00:07:06;10.20;99.90
22558;DHT22;11445;53.816;8.902;2023-04-01T00:09:33;10.20;99.90
22558;DHT22;11445;53.816;8.902;2023-04-01T00:12:03;10.20;99.90
22558;DHT22;11445;53.816;8.902;2023-04-01T00:14:30;10.20;99.90
22558;DHT22;11445;53.816;8.902;2023-04-01T00:16:57;10.20;99.90
22558;DHT22;11445;53.816;8.902;2023-04-01T00:19:24;10.20;99.90
22558;DHT22;11445;53.816;8.902;2023-04-01T00:21:51;10.10;99.90
22558;DHT22;11445;53.816;8.902;2023-04-01T00:24:18;10.10;99.90
22558;DHT22;11445;53.816;8.902;2023-04-01T00:26:45;10.10;99.90
22558;DHT22;11445;53.816;8.902;2023-04-01T00:29:14;10.10;99.90
22558;DHT22;11445;53.816;8.902;2023-04-01T00:31:41;10.10;99.90
22558;DHT22;11445;53.816;8.902;2023-04-01T00:34:08;10.10;99.90
22558;DHT22;11445;53.816;8.902;2023-04-01T00:36:35;10.10;99.90
22558;DHT22;11445;53.816;8.902;2023-04-01T00:39:02;10.10;99.90
22558;DHT22;11445;53.816;8.902;2023-04-01T00:41:29;10.10;99.90
22558;DHT22;11445;53.816;8.902;2023-04-01T00:44:14;10.00;99.90
22558;DHT22;11445;53.816;8.902;2023-04-01T00:46:42;10.00;99.90
22558;DHT22;11445;53.816;8.902;2023-04-01T00:49:09;10.00;99.90
22558;DHT22;11445;53.816;8.902;2023-04-01T00:51:37;10.00;99.90
22558;DHT22;11445;53.816;8.902;2023-04-01T00:54:07;10.00;99.90
22558;DHT22;11445;53.816;8.902;2023-04-01T00:56:37;10.00;99.90
22558;DHT22;11445;53.816;8.902;2023-04-01T00:59:08;10.00;99.90
22558;DHT22;11445;53.816;8.902;2023-04-01T01:01:38;10.00;99.90
22558;DHT22;11445;53.816;8.902;2023-04-01T01:04:05;10.00;99.90
22558;DHT22;11445;53.816;8.902;2023-04-01T01:06:42;10.00;99.90
22558;DHT22;11445;53.816;8.902;2023-04-01T01:09:36;10.00;99.90
22558;DHT22;11445;53.816;8.902;2023-04-01T01:12:09;10.00;99.90
22558;DHT22;11445;53.816;8.902;2023-04-01T01:14:48;10.00;99.90
22558;DHT22;11445;53.816;8.902;2023-04-01T01:17:26;10.00;99.90
22558;DHT22;11445;53.816;8.902;2023-04-01T01:26:05;10.00;99.90
22558;DHT22;11445;53.816;8.902;2023-04-01T01:28:47;10.00;99.90
22558;DHT22;11445;53.816;8.902;2023-04-01T01:31:20;10.00;99.90
22558;DHT22;11445;53.816;8.902;2023-04-01T01:33:58;10.00;99.90
22558;DHT22;11445;53.816;8.902;2023-04-01T01:36:31;10.00;99.90
22558;DHT22;11445;53.816;8.902;2023-04-01T01:39:01;10.00;99.90
22558;DHT22;11445;53.816;8.902;2023-04-01T01:41:29;10.00;99.90
22558;DHT22;11445;53.816;8.902;2023-04-01T01:43:58;10.00;99.90
22558;DHT22;11445;53.816;8.902;2023-04-01T01:46:28;10.00;99.90
22558;DHT22;11445;53.816;8.902;2023-04-01T01:48:57;10.00;99.90
22558;DHT22;11445;53.816;8.902;2023-04-01T01:51:29;10.00;99.90
22558;DHT22;11445;53.816;8.902;2023-04-01T01:53:56;10.00;99.90
22558;DHT22;11445;53.816;8.902;2023-04-01T01:56:25;10.00;99.90
22558;DHT22;11445;53.816;8.902;2023-04-01T01:58:56;10.00;99.90
22558;DHT22;11445;53.816;8.902;2023-04-01T02:01:27;10.00;99.90
22558;DHT22;11445;53.816;8.902;2023-04-01T02:03:55;10.00;99.90
22558;DHT22;11445;53.816;8.902;2023-04-01T02:06:25;10.00;99.90
22558;DHT22;11445;53.816;8.902;2023-04-01T02:08:56;10.00;99.90
22558;DHT22;11445;53.816;8.902;2023-04-01T02:11:27;10.00;99.90
22558;DHT22;11445;53.816;8.902;2023-04-01T02:14:01;10.00;99.90
22558;DHT22;11445;53.816;8.902;2023-04-01T02:16:33;10.00;99.90
22558;DHT22;11445;53.816;8.902;2023-04-01T02:19:03;10.00;99.90
22558;DHT22;11445;53.816;8.902;2023-04-01T02:21:33;10.00;99.90
22558;DHT22;11445;53.816;8.902;2023-04-01T02:24:07;10.00;99.90
22558;DHT22;11445;53.816;8.902;2023-04-01T02:26:35;10.00;99.90
22558;DHT22;11445;53.816;8.902;2023-04-01T02:29:03;10.00;99.90
22558;DHT22;11445;53.816;8.902;2023-04-01T02:31:32;10.00;99.90
22558;DHT22;11445;53.816;8.902;2023-04-01T02:34:00;10.00;99.90
22558;DHT22;11445;53.816;8.902;2023-04-01T02:36:27;10.00;99.90
22558;DHT22;11445;53.816;8.902;2023-04-01T02:38:54;10.00;99.90
22558;DHT22;11445;53.816;8.902;2023-04-01T02:41:26;10.00;99.90
22558;DHT22;11445;53.816;8.902;2023-04-01T02:43:53;10.00;99.90
22558;DHT22;11445;53.816;8.902;2023-04-01T02:46:20;10.00;99.90
22558;DHT22;11445;53.816;8.902;2023-04-01T02:48:47;10.00;99.90
22558;DHT22;11445;53.816;8.902;2023-04-01T02:51:14;10.00;99.90
22558;DHT22;11445;53.816;8.902;2023-04-01T02:53:41;10.00;99.90
22558;DHT22;11445;53.816;8.902;2023-04-01T02:56:08;10.00;99.90
22558;DHT22;11445;53.816;8.902;2023-04-01T02:58:37;10.10;99.90
22558;DHT22;11445;53.816;8.902;2023-04-01T03:01:04;10.10;99.90
22558;DHT22;11445;53.816;8.902;2023-04-01T03:03:31;10.10;99.90
22558;DHT22;11445;53.816;8.902;2023-04-01T03:05:58;10.10;99.90
22558;DHT22;11445;53.816;8.902;2023-04-01T03:08:25;10.10;99.90
22558;DHT22;11445;53.816;8.902;2023-04-01T03:10:52;10.10;99.90
22558;DHT22;11445;53.816;8.902;2023-04-01T03:13:19;10.10;99.90
22558;DHT22;11445;53.816;8.902;2023-04-01T03:15:48;10.10;99.90
22558;DHT22;11445;53.816;8.902;2023-04-01T03:18:15;10.10;99.90
22558;DHT22;11445;53.816;8.902;2023-04-01T03:20:42;10.10;99.90
22558;DHT22;11445;53.816;8.902;2023-04-01T03:23:09;10.10;99.90
22558;DHT22;11445;53.816;8.902;2023-04-01T03:25:36;10.10;99.90
22558;DHT22;11445;53.816;8.902;2023-04-01T03:28:03;10.10;99.90
22558;DHT22;11445;53.816;8.902;2023-04-01T03:30:30;10.10;99.90
22558;DHT22;11445;53.816;8.902;2023-04-01T03:32:59;10.10;99.90
22558;DHT22;11445;53.816;8.902;2023-04-01T03:35:26;10.10;99.90
22558;DHT22;11445;53.816;8.902;2023-04-01T03:37:54;10.10;99.90
22558;DHT22;11445;53.816;8.902;2023-04-01T03:40:21;10.10;99.90
22558;DHT22;11445;53.816;8.902;2023-04-01T03:42:49;10.10;99.90
22558;DHT22;11445;53.816;8.902;2023-04-01T03:45:16;10.10;99.90
22558;DHT22;11445;53.816;8.902;2023-04-01T03:47:43;10.10;99.90
22558;DHT22;11445;53.816;8.902;2023-04-01T03:50:12;10.10;99.90
22558;DHT22;11445;53.816;8.902;2023-04-01T03:52:39;10.10;99.90
22558;DHT22;11445;53.816;8.902;2023-04-01T03:55:06;10.10;99.90
22558;DHT22;11445;53.816;8.902;2023-04-01T03:57:33;10.10;99.90
22558;DHT22;11445;53.816;8.902;2023-04-01T04:00:00;10.10;99.90
22558;DHT22;11445;53.816;8.902;2023-04-01T04:02:27;10.10;99.90
22558;DHT22;11445;53.816;8.902;2023-04-01T04:04:54;10.10;99.90
22558;DHT22;11445;53.816;8.902;2023-04-01T04:07:23;10.10;99.90
22558;DHT22;11445;53.816;8.902;2023-04-01T04:09:50;10.10;99.90
22558;DHT22;11445;53.816;8.902;2023-04-01T04:12:17;10.10;99.90
22558;DHT22;11445;53.816;8.902;2023-04-01T04:14:44;10.10;99.90
22558;DHT22;11445;53.816;8.902;2023-04-01T04:17:11;10.10;99.90
22558;DHT22;11445;53.816;8.902;2023-04-01T04:19:41;10.10;99.90
22558;DHT22;11445;53.816;8.902;2023-04-01T04:22:08;10.10;99.90
22558;DHT22;11445;53.816;8.902;2023-04-01T04:24:37;10.10;99.90
22558;DHT22;11445;53.816;8.902;2023-04-01T04:27:04;10.10;99.90
22558;DHT22;11445;53.816;8.902;2023-04-01T04:29:31;10.10;99.90
22558;DHT22;11445;53.816;8.902;2023-04-01T04:31:58;10.00;99.90
22558;DHT22;11445;53.816;8.902;2023-04-01T04:34:25;9.80;99.90
22558;DHT22;11445;53.816;8.902;2023-04-01T04:36:52;9.60;99.90
22558;DHT22;11445;53.816;8.902;2023-04-01T04:39:19;9.40;99.90
22558;DHT22;11445;53.816;8.902;2023-04-01T04:41:48;9.30;99.90
22558;DHT22;11445;53.816;8.902;2023-04-01T04:44:15;9.20;99.90
22558;DHT22;11445;53.816;8.902;2023-04-01T04:46:42;9.10;99.90
22558;DHT22;11445;53.816;8.902;2023-04-01T04:49:09;8.90;99.90
22558;DHT22;11445;53.816;8.902;2023-04-01T04:51:36;8.80;99.90
22558;DHT22;11445;53.816;8.902;2023-04-01T04:54:04;8.70;99.90
22558;DHT22;11445;53.816;8.902;2023-04-01T04:56:32;8.60;99.90
22558;DHT22;11445;53.816;8.902;2023-04-01T04:59:00;8.50;99.90
22558;DHT22;11445;53.816;8.902;2023-04-01T05:01:27;8.40;99.90
22558;DHT22;11445;53.816;8.902;2023-04-01T05:03:54;8.40;99.90
22558;DHT22;11445;53.816;8.902;2023-04-01T05:06:22;8.30;99.90
22558;DHT22;11445;53.816;8.902;2023-04-01T05:08:49;8.20;99.90
22558;DHT22;11445;53.816;8.902;2023-04-01T05:11:19;8.20;99.90
22558;DHT22;11445;53.816;8.902;2023-04-01T05:13:46;8.10;99.90
22558;DHT22;11445;53.816;8.902;2023-04-01T05:16:17;8.00;99.90
22558;DHT22;11445;53.816;8.902;2023-04-01T05:18:44;8.00;99.90
22558;DHT22;11445;53.816;8.902;2023-04-01T05:21:13;8.00;99.90
22558;DHT22;11445;53.816;8.902;2023-04-01T05:23:40;7.90;99.90
22558;DHT22;11445;53.816;8.902;2023-04-01T05:26:09;7.90;99.90
22558;DHT22;11445;53.816;8.902;2023-04-01T05:28:36;7.90;99.90
22558;DHT22;11445;53.816;8.902;2023-04-01T05:31:04;7.80;99.90
22558;DHT22;11445;53.816;8.902;2023-04-01T05:33:33;7.80;99.90
22558;DHT22;11445;53.816;8.902;2023-04-01T05:36:07;7.80;99.90
22558;DHT22;11445;53.816;8.902;2023-04-01T05:38:34;7.80;99.90
22558;DHT22;11445;53.816;8.902;2023-04-01T05:41:01;7.80;99.90
22558;DHT22;11445;53.816;8.902;2023-04-01T05:43:29;7.70;99.90
22558;DHT22;11445;53.816;8.902;2023-04-01T05:45:56;7.70;99.90
22558;DHT22;11445;53.816;8.902;2023-04-01T05:48:23;7.60;99.90
22558;DHT22;11445;53.816;8.902;2023-04-01T05:50:52;7.60;99.90
22558;DHT22;11445;53.816;8.902;2023-04-01T05:53:19;7.60;99.90
22558;DHT22;11445;53.816;8.902;2023-04-01T05:55:47;7.50;99.90
22558;DHT22;11445;53.816;8.902;2023-04-01T05:58:15;7.50;99.90
22558;DHT22;11445;53.816;8.902;2023-04-01T06:00:42;7.50;99.90
22558;DHT22;11445;53.816;8.902;2023-04-01T06:03:09;7.40;99.90
22558;DHT22;11445;53.816;8.902;2023-04-01T06:05:40;7.30;99.90
22558;DHT22;11445;53.816;8.902;2023-04-01T06:08:13;7.30;99.90
22558;DHT22;11445;53.816;8.902;2023-04-01T06:10:53;7.40;99.90
22558;DHT22;11445;53.816;8.902;2023-04-01T06:13:32;7.30;99.90
22558;DHT22;11445;53.816;8.902;2023-04-01T06:16:10;7.30;99.90
22558;DHT22;11445;53.816;8.902;2023-04-01T06:18:54;7.30;99.90
22558;DHT22;11445;53.816;8.902;2023-04-01T06:21:41;7.20;99.90
22558;DHT22;11445;53.816;8.902;2023-04-01T06:27:19;7.30;99.90
22558;DHT22;11445;53.816;8.902;2023-04-01T06:29:58;7.30;99.90
22558;DHT22;11445;53.816;8.902;2023-04-01T06:32:50;7.20;99.90
22558;DHT22;11445;53.816;8.902;2023-04-01T06:35:29;7.20;99.90
22558;DHT22;11445;53.816;8.902;2023-04-01T06:38:11;7.20;99.90
22558;DHT22;11445;53.816;8.902;2023-04-01T06:40:55;7.20;99.90
22558;DHT22;11445;53.816;8.902;2023-04-01T06:43:29;7.20;99.90
22558;DHT22;11445;53.816;8.902;2023-04-01T06:46:01;7.20;99.90
22558;DHT22;11445;53.816;8.902;2023-04-01T06:48:40;7.20;99.90
22558;DHT22;11445;53.816;8.902;2023-04-01T06:51:16;7.20;99.90
22558;DHT22;11445;53.816;8.902;2023-04-01T06:53:50;7.30;99.90
22558;DHT22;11445;53.816;8.902;2023-04-01T06:56:22;7.20;99.90
22558;DHT22;11445;53.816;8.902;2023-04-01T06:58:53;7.20;99.90
22558;DHT22;11445;53.816;8.902;2023-04-01T07:01:25;7.20;99.90
22558;DHT22;11445;53.816;8.902;2023-04-01T07:03:55;7.10;99.90
22558;DHT22;11445;53.816;8.902;2023-04-01T07:06:28;7.10;99.90
22558;DHT22;11445;53.816;8.902;2023-04-01T07:08:59;7.30;99.90
22558;DHT22;11445;53.816;8.902;2023-04-01T07:11:32;7.30;99.90
22558;DHT22;11445;53.816;8.902;2023-04-01T07:14:02;7.50;99.90
22558;DHT22;11445;53.816;8.902;2023-04-01T07:16:32;7.60;99.90
22558;DHT22;11445;53.816;8.902;2023-04-01T07:19:05;7.50;99.90
22558;DHT22;11445;53.816;8.902;2023-04-01T07:21:36;7.40;99.90
22558;DHT22;11445;53.816;8.902;2023-04-01T07:24:12;7.40;99.90
22558;DHT22;11445;53.816;8.902;2023-04-01T07:26:44;7.30;99.90
22558;DHT22;11445;53.816;8.902;2023-04-01T07:29:13;7.30;99.90
22558;DHT22;11445;53.816;8.902;2023-04-01T07:32:03;7.30;99.90
22558;DHT22;11445;53.816;8.902;2023-04-01T07:34:36;7.40;99.90
22558;DHT22;11445;53.816;8.902;2023-04-01T07:37:08;7.50;99.90
22558;DHT22;11445;53.816;8.902;2023-04-01T07:39:43;7.60;99.90
22558;DHT22;11445;53.816;8.902;2023-04-01T07:42:22;7.50;99.90
22558;DHT22;11445;53.816;8.902;2023-04-01T07:44:57;7.40;99.90
22558;DHT22;11445;53.816;8.902;2023-04-01T07:47:36;7.30;99.90
22558;DHT22;11445;53.816;8.902;2023-04-01T07:50:13;7.30;99.90
22558;DHT22;11445;53.816;8.902;2023-04-01T07:52:51;7.30;99.90
22558;DHT22;11445;53.816;8.902;2023-04-01T07:55:24;7.20;99.90
22558;DHT22;11445;53.816;8.902;2023-04-01T07:57:59;7.20;99.90
22558;DHT22;11445;53.816;8.902;2023-04-01T08:00:33;7.10;99.90
22558;DHT22;11445;53.816;8.902;2023-04-01T08:03:14;7.10;99.90
22558;DHT22;11445;53.816;8.902;2023-04-01T08:05:54;7.10;99.90
22558;DHT22;11445;53.816;8.902;2023-04-01T08:08:29;7.10;99.90
22558;DHT22;11445;53.816;8.902;2023-04-01T08:11:07;7.10;99.90
22558;DHT22;11445;53.816;8.902;2023-04-01T08:13:42;7.10;99.90
22558;DHT22;11445;53.816;8.902;2023-04-01T08:16:18;7.10;99.90
22558;DHT22;11445;53.816;8.902;2023-04-01T08:18:52;7.10;99.90
22558;DHT22;11445;53.816;8.902;2023-04-01T08:21:22;7.10;99.90
22558;DHT22;11445;53.816;8.902;2023-04-01T08:23:52;7.20;99.90
22558;DHT22;11445;53.816;8.902;2023-04-01T08:26:28;7.20;99.90
22558;DHT22;11445;53.816;8.902;2023-04-01T08:29:01;7.20;99.90
22558;DHT22;11445;53.816;8.902;2023-04-01T08:31:31;7.20;99.90
22558;DHT22;11445;53.816;8.902;2023-04-01T08:34:00;7.10;99.90
22558;DHT22;11445;53.816;8.902;2023-04-01T08:36:34;7.10;99.90
22558;DHT22;11445;53.816;8.902;2023-04-01T08:39:06;7.10;99.90
22558;DHT22;11445;53.816;8.902;2023-04-01T08:41:47;7.10;99.90
22558;DHT22;11445;53.816;8.902;2023-04-01T08:44:38;7.10;99.90
22558;DHT22;11445;53.816;8.902;2023-04-01T08:47:23;7.10;99.90
22558;DHT22;11445;53.816;8.902;2023-04-01T08:50:06;7.10;99.90
22558;DHT22;11445;53.816;8.902;2023-04-01T08:52:44;7.00;99.90
22558;DHT22;11445;53.816;8.902;2023-04-01T08:55:27;7.00;99.90
22558;DHT22;11445;53.816;8.902;2023-04-01T09:01:14;7.10;99.90
22558;DHT22;11445;53.816;8.902;2023-04-01T09:03:57;7.10;99.90
22558;DHT22;11445;53.816;8.902;2023-04-01T09:06:38;7.10;99.90
22558;DHT22;11445;53.816;8.902;2023-04-01T09:12:21;7.10;99.90
22558;DHT22;11445;53.816;8.902;2023-04-01T09:15:27;7.10;99.90
22558;DHT22;11445;53.816;8.902;2023-04-01T09:21:42;7.00;99.90
22558;DHT22;11445;53.816;8.902;2023-04-01T09:24:33;6.90;99.90
22558;DHT22;11445;53.816;8.902;2023-04-01T09:27:12;6.90;99.90
22558;DHT22;11445;53.816;8.902;2023-04-01T09:35:46;6.90;99.90
22558;DHT22;11445;53.816;8.902;2023-04-01T09:38:21;7.00;99.90
22558;DHT22;11445;53.816;8.902;2023-04-01T09:40:55;7.00;99.90
22558;DHT22;11445;53.816;8.902;2023-04-01T09:43:33;7.00;99.90
22558;DHT22;11445;53.816;8.902;2023-04-01T09:46:19;7.10;99.90
22558;DHT22;11445;53.816;8.902;2023-04-01T09:49:04;7.20;99.90
22558;DHT22;11445;53.816;8.902;2023-04-01T09:51:43;7.20;99.90
22558;DHT22;11445;53.816;8.902;2023-04-01T09:54:26;7.20;99.90
22558;DHT22;11445;53.816;8.902;2023-04-01T09:57:20;7.10;99.90
22558;DHT22;11445;53.816;8.902;2023-04-01T10:06:38;7.20;99.90
22558;DHT22;11445;53.816;8.902;2023-04-01T10:12:50;7.30;99.90
22558;DHT22;11445;53.816;8.902;2023-04-01T10:18:44;7.30;99.90
22558;DHT22;11445;53.816;8.902;2023-04-01T10:33:53;7.40;99.90
22558;DHT22;11445;53.816;8.902;2023-04-01T10:36:50;7.40;99.90
22558;DHT22;11445;53.816;8.902;2023-04-01T10:45:52;7.30;99.90
22558;DHT22;11445;53.816;8.902;2023-04-01T10:48:49;7.40;99.90
22558;DHT22;11445;53.816;8.902;2023-04-01T10:51:41;7.40;99.90
22558;DHT22;11445;53.816;8.902;2023-04-01T10:54:21;7.40;99.90
22558;DHT22;11445;53.816;8.902;2023-04-01T10:56:55;7.50;99.90
22558;DHT22;11445;53.816;8.902;2023-04-01T10:59:45;7.50;99.90
22558;DHT22;11445;53.816;8.902;2023-04-01T11:02:57;7.50;99.90
22558;DHT22;11445;53.816;8.902;2023-04-01T11:24:58;7.20;99.90
22558;DHT22;11445;53.816;8.902;2023-04-01T11:30:45;7.10;99.90
22558;DHT22;11445;53.816;8.902;2023-04-01T11:33:19;7.00;99.90
22558;DHT22;11445;53.816;8.902;2023-04-01T11:35:57;7.00;99.90
22558;DHT22;11445;53.816;8.902;2023-04-01T11:38:49;7.00;99.90
22558;DHT22;11445;53.816;8.902;2023-04-01T11:41:30;6.90;99.90
22558;DHT22;11445;53.816;8.902;2023-04-01T11:44:15;6.90;99.90
22558;DHT22;11445;53.816;8.902;2023-04-01T11:46:54;6.90;99.90
22558;DHT22;11445;53.816;8.902;2023-04-01T11:49:33;6.90;99.90
22558;DHT22;11445;53.816;8.902;2023-04-01T11:52:15;6.90;99.90
22558;DHT22;11445;53.816;8.902;2023-04-01T11:55:23;6.90;99.90
22558;DHT22;11445;53.816;8.902;2023-04-01T11:58:02;6.90;99.90
22558;DHT22;11445;53.816;8.902;2023-04-01T12:01:10;6.80;99.90
22558;DHT22;11445;53.816;8.902;2023-04-01T12:04:00;6.80;99.90
22558;DHT22;11445;53.816;8.902;2023-04-01T12:06:38;6.80;99.90
22558;DHT22;11445;53.816;8.902;2023-04-01T12:09:12;6.80;99.90
22558;DHT22;11445;53.816;8.902;2023-04-01T12:11:50;6.80;99.90
22558;DHT22;11445;53.816;8.902;2023-04-01T12:14:25;6.90;99.90
22558;DHT22;11445;53.816;8.902;2023-04-01T12:17:03;6.90;99.90
22558;DHT22;11445;53.816;8.902;2023-04-01T12:19:39;6.90;99.90
22558;DHT22;11445;53.816;8.902;2023-04-01T12:22:29;6.90;99.90
22558;DHT22;11445;53.816;8.902;2023-04-01T12:25:16;7.00;99.90
22558;DHT22;11445;53.816;8.902;2023-04-01T12:27:55;7.00;99.90
22558;DHT22;11445;53.816;8.902;2023-04-01T12:30:42;6.90;99.90
22558;DHT22;11445;53.816;8.902;2023-04-01T12:33:17;6.90;99.90
22558;DHT22;11445;53.816;8.902;2023-04-01T12:35:58;6.90;99.90
22558;DHT22;11445;53.816;8.902;2023-04-01T12:38:35;6.80;99.90
22558;DHT22;11445;53.816;8.902;2023-04-01T12:41:09;6.80;99.90
22558;DHT22;11445;53.816;8.902;2023-04-01T12:47:06;6.90;99.90
22558;DHT22;11445;53.816;8.902;2023-04-01T12:49:55;6.80;99.90
22558;DHT22;11445;53.816;8.902;2023-04-01T12:52:34;6.70;99.90
22558;DHT22;11445;53.816;8.902;2023-04-01T12:55:28;6.70;99.90
22558;DHT22;11445;53.816;8.902;2023-04-01T13:01:41;6.60;99.90
22558;DHT22;11445;53.816;8.902;2023-04-01T13:04:30;6.50;99.90
22558;DHT22;11445;53.816;8.902;2023-04-01T13:10:02;6.60;99.90
22558;DHT22;11445;53.816;8.902;2023-04-01T13:12:48;6.50;99.90
22558;DHT22;11445;53.816;8.902;2023-04-01T13:15:26;6.50;99.90
22558;DHT22;11445;53.816;8.902;2023-04-01T13:18:02;6.50;99.90
22558;DHT22;11445;53.816;8.902;2023-04-01T13:20:41;6.50;99.90
22558;DHT22;11445;53.816;8.902;2023-04-01T13:23:19;6.50;99.90
22558;DHT22;11445;53.816;8.902;2023-04-01T13:25:52;6.50;99.90
22558;DHT22;11445;53.816;8.902;2023-04-01T13:28:24;6.50;99.90
22558;DHT22;11445;53.816;8.902;2023-04-01T13:30:57;6.50;99.90
22558;DHT22;11445;53.816;8.902;2023-04-01T13:33:34;6.50;99.90
22558;DHT22;11445;53.816;8.902;2023-04-01T13:36:14;6.50;99.90
22558;DHT22;11445;53.816;8.902;2023-04-01T13:39:06;6.40;99.90
22558;DHT22;11445;53.816;8.902;2023-04-01T13:41:59;6.50;99.90
22558;DHT22;11445;53.816;8.902;2023-04-01T13:44:35;6.50;99.90
22558;DHT22;11445;53.816;8.902;2023-04-01T13:47:20;6.50;99.90
22558;DHT22;11445;53.816;8.902;2023-04-01T13:50:05;6.50;99.90
22558;DHT22;11445;53.816;8.902;2023-04-01T13:53:08;6.60;99.90
22558;DHT22;11445;53.816;8.902;2023-04-01T13:55:59;6.50;99.90
22558;DHT22;11445;53.816;8.902;2023-04-01T14:01:31;6.40;99.90
22558;DHT22;11445;53.816;8.902;2023-04-01T14:04:25;6.40;99.90
22558;DHT22;11445;53.816;8.902;2023-04-01T14:07:04;6.30;99.90
22558;DHT22;11445;53.816;8.902;2023-04-01T14:09:53;6.30;99.90
22558;DHT22;11445;53.816;8.902;2023-04-01T14:12:31;6.30;99.90
22558;DHT22;11445;53.816;8.902;2023-04-01T14:15:31;6.30;99.90
22558;DHT22;11445;53.816;8.902;2023-04-01T14:21:30;6.30;99.90
22558;DHT22;11445;53.816;8.902;2023-04-01T14:24:18;6.30;99.90
22558;DHT22;11445;53.816;8.902;2023-04-01T14:27:12;6.30;99.90
22558;DHT22;11445;53.816;8.902;2023-04-01T14:29:52;6.30;99.90
22558;DHT22;11445;53.816;8.902;2023-04-01T14:32:32;6.30;99.90
22558;DHT22;11445;53.816;8.902;2023-04-01T14:35:18;6.30;99.90
22558;DHT22;11445;53.816;8.902;2023-04-01T14:38:02;6.20;99.90
22558;DHT22;11445;53.816;8.902;2023-04-01T14:40:45;6.20;99.90
22558;DHT22;11445;53.816;8.902;2023-04-01T14:43:33;6.10;99.90
22558;DHT22;11445;53.816;8.902;2023-04-01T14:46:13;6.10;99.90
22558;DHT22;11445;53.816;8.902;2023-04-01T14:48:51;6.10;99.90
22558;DHT22;11445;53.816;8.902;2023-04-01T14:51:28;6.10;99.90
22558;DHT22;11445;53.816;8.902;2023-04-01T14:54:02;6.10;99.90
22558;DHT22;11445;53.816;8.902;2023-04-01T14:56:41;6.10;99.90
22558;DHT22;11445;53.816;8.902;2023-04-01T14:59:17;6.10;99.90
22558;DHT22;11445;53.816;8.902;2023-04-01T15:01:54;6.10;99.90
22558;DHT22;11445;53.816;8.902;2023-04-01T15:07:35;6.10;99.90
22558;DHT22;11445;53.816;8.902;2023-04-01T15:10:16;6.10;99.90
22558;DHT22;11445;53.816;8.902;2023-04-01T15:12:55;6.10;99.90
22558;DHT22;11445;53.816;8.902;2023-04-01T15:15:44;6.10;99.90
22558;DHT22;11445;53.816;8.902;2023-04-01T15:18:19;6.10;99.90
22558;DHT22;11445;53.816;8.902;2023-04-01T15:21:11;6.10;99.90
22558;DHT22;11445;53.816;8.902;2023-04-01T15:23:54;6.00;99.90
22558;DHT22;11445;53.816;8.902;2023-04-01T15:29:29;6.00;99.90
22558;DHT22;11445;53.816;8.902;2023-04-01T15:32:01;6.00;99.90
22558;DHT22;11445;53.816;8.902;2023-04-01T15:34:34;6.00;99.90
22558;DHT22;11445;53.816;8.902;2023-04-01T15:37:09;6.00;99.90
22558;DHT22;11445;53.816;8.902;2023-04-01T15:39:54;5.90;99.90
22558;DHT22;11445;53.816;8.902;2023-04-01T15:42:50;5.90;99.90
22558;DHT22;11445;53.816;8.902;2023-04-01T15:45:33;5.90;99.90
22558;DHT22;11445;53.816;8.902;2023-04-01T15:48:13;5.90;99.90
22558;DHT22;11445;53.816;8.902;2023-04-01T15:51:01;5.90;99.90
22558;DHT22;11445;53.816;8.902;2023-04-01T15:53:44;5.80;99.90
22558;DHT22;11445;53.816;8.902;2023-04-01T15:56:24;5.80;99.90
22558;DHT22;11445;53.816;8.902;2023-04-01T15:59:01;5.80;99.90
22558;DHT22;11445;53.816;8.902;2023-04-01T16:01:39;5.80;99.90
22558;DHT22;11445;53.816;8.902;2023-04-01T16:04:32;5.70;99.90
22558;DHT22;11445;53.816;8.902;2023-04-01T16:07:15;5.70;99.90
22558;DHT22;11445;53.816;8.902;2023-04-01T16:09:59;5.70;99.90
22558;DHT22;11445;53.816;8.902;2023-04-01T16:12:42;5.70;99.90
22558;DHT22;11445;53.816;8.902;2023-04-01T16:15:23;5.70;99.90
22558;DHT22;11445;53.816;8.902;2023-04-01T16:20:57;5.70;99.90
22558;DHT22;11445;53.816;8.902;2023-04-01T16:23:33;5.70;99.90
22558;DHT22;11445;53.816;8.902;2023-04-01T16:26:07;5.80;99.90
22558;DHT22;11445;53.816;8.902;2023-04-01T16:28:40;5.70;99.90
22558;DHT22;11445;53.816;8.902;2023-04-01T16:31:13;5.70;99.90
22558;DHT22;11445;53.816;8.902;2023-04-01T16:33:47;5.60;99.90
22558;DHT22;11445;53.816;8.902;2023-04-01T16:36:24;5.60;99.90
22558;DHT22;11445;53.816;8.902;2023-04-01T16:39:20;5.60;99.90
22558;DHT22;11445;53.816;8.902;2023-04-01T16:41:51;5.60;99.90
22558;DHT22;11445;53.816;8.902;2023-04-01T16:44:23;5.60;99.90
22558;DHT22;11445;53.816;8.902;2023-04-01T16:46:51;5.60;99.90
22558;DHT22;11445;53.816;8.902;2023-04-01T16:49:31;5.60;99.90
22558;DHT22;11445;53.816;8.902;2023-04-01T16:52:16;5.60;99.90
22558;DHT22;11445;53.816;8.902;2023-04-01T16:54:47;5.50;99.90
22558;DHT22;11445;53.816;8.902;2023-04-01T16:57:25;5.60;99.90
22558;DHT22;11445;53.816;8.902;2023-04-01T16:59:59;5.60;99.90
22558;DHT22;11445;53.816;8.902;2023-04-01T17:02:33;5.60;99.90
22558;DHT22;11445;53.816;8.902;2023-04-01T17:05:05;5.50;99.90
22558;DHT22;11445;53.816;8.902;2023-04-01T17:07:41;5.50;99.90
22558;DHT22;11445;53.816;8.902;2023-04-01T17:10:32;5.50;99.90
22558;DHT22;11445;53.816;8.902;2023-04-01T17:13:15;5.50;99.90
22558;DHT22;11445;53.816;8.902;2023-04-01T17:15:49;5.50;99.90
22558;DHT22;11445;53.816;8.902;2023-04-01T17:18:26;5.50;99.90
22558;DHT22;11445;53.816;8.902;2023-04-01T17:20:59;5.50;99.90
22558;DHT22;11445;53.816;8.902;2023-04-01T17:23:30;5.40;99.90
22558;DHT22;11445;53.816;8.902;2023-04-01T17:26:10;5.40;99.90
22558;DHT22;11445;53.816;8.902;2023-04-01T17:28:46;5.40;99.90
22558;DHT22;11445;53.816;8.902;2023-04-01T17:31:26;5.40;99.90
22558;DHT22;11445;53.816;8.902;2023-04-01T17:34:09;5.40;99.90
22558;DHT22;11445;53.816;8.902;2023-04-01T17:36:58;5.40;99.90
22558;DHT22;11445;53.816;8.902;2023-04-01T17:39:39;5.30;99.90
22558;DHT22;11445;53.816;8.902;2023-04-01T17:42:11;5.30;99.90
22558;DHT22;11445;53.816;8.902;2023-04-01T17:44:57;5.60;99.90
22558;DHT22;11445;53.816;8.902;2023-04-01T17:47:47;5.70;99.90
22558;DHT22;11445;53.816;8.902;2023-04-01T17:50:24;5.70;99.90
22558;DHT22;11445;53.816;8.902;2023-04-01T17:53:06;5.60;99.90
22558;DHT22;11445;53.816;8.902;2023-04-01T17:55:55;5.50;99.90
22558;DHT22;11445;53.816;8.902;2023-04-01T17:58:29;5.40;99.90
22558;DHT22;11445;53.816;8.902;2023-04-01T18:01:17;5.30;99.90
22558;DHT22;11445;53.816;8.902;2023-04-01T18:04:18;5.30;99.90
22558;DHT22;11445;53.816;8.902;2023-04-01T18:07:15;5.30;99.90
22558;DHT22;11445;53.816;8.902;2023-04-01T18:09:57;5.20;99.90
22558;DHT22;11445;53.816;8.902;2023-04-01T18:12:32;5.10;99.90
22558;DHT22;11445;53.816;8.902;2023-04-01T18:15:19;5.10;99.90
22558;DHT22;11445;53.816;8.902;2023-04-01T18:17:59;5.00;99.90
22558;DHT22;11445;53.816;8.902;2023-04-01T18:20:37;5.00;99.90
22558;DHT22;11445;53.816;8.902;2023-04-01T18:23:19;4.90;99.90